sensor_id;sensor_type;location;lat;lon;timestamp;temperature;humidity
13115;DHT22;6623;52.120;8.660;2023-07-20T00:01:14;25.90;46.60
13115;DHT22;6623;52.120;8.660;2023-07-20T00:03:39;25.90;46.60
13115;DHT22;6623;52.120;8.660;2023-07-20T00:06:05;25.90;46.60
13115;DHT22;6623;52.120;8.660;2023-07-20T00:08:31;25.90;46.60
13115;DHT22;6623;52.120;8.660;2023-07-20T00:10:56;25.90;46.60
13115;DHT22;6623;52.120;8.660;2023-07-20T00:13:22;25.90;46.60
13115;DHT22;6623;52.120;8.660;2023-07-20T00:15:48;25.90;46.60
13115;DHT22;6623;52.120;8.660;2023-07-20T00:18:13;25.90;46.60
13115;DHT22;6623;52.120;8.660;2023-07-20T00:20:39;25.90;46.60
13115;DHT22;6623;52.120;8.660;2023-07-20T00:23:05;25.90;46.60
13115;DHT22;6623;52.120;8.660;2023-07-20T00:25:31;25.90;46.60
13115;DHT22;6623;52.120;8.660;2023-07-20T00:27:57;25.90;46.60
13115;DHT22;6623;52.120;8.660;2023-07-20T00:30:22;25.90;46.60
13115;DHT22;6623;52.120;8.660;2023-07-20T00:32:48;25.90;46.60
13115;DHT22;6623;52.120;8.660;2023-07-20T00:35:13;25.90;46.60
13115;DHT22;6623;52.120;8.660;2023-07-20T00:37:39;25.90;46.60
13115;DHT22;6623;52.120;8.660;2023-07-20T00:40:06;25.90;46.60
13115;DHT22;6623;52.120;8.660;2023-07-20T00:42:34;25.90;46.60
13115;DHT22;6623;52.120;8.660;2023-07-20T00:45:00;25.90;46.60
13115;DHT22;6623;52.120;8.660;2023-07-20T00:47:26;25.90;46.60
13115;DHT22;6623;52.120;8.660;2023-07-20T00:49:52;25.90;46.60
13115;DHT22;6623;52.120;8.660;2023-07-20T00:52:19;25.90;46.60
13115;DHT22;6623;52.120;8.660;2023-07-20T00:54:47;25.90;46.60
13115;DHT22;6623;52.120;8.660;2023-07-20T00:57:16;25.90;46.60
13115;DHT22;6623;52.120;8.660;2023-07-20T00:59:43;25.90;46.60
13115;DHT22;6623;52.120;8.660;2023-07-20T01:02:09;25.90;46.50
13115;DHT22;6623;52.120;8.660;2023-07-20T01:04:35;25.90;46.60
13115;DHT22;6623;52.120;8.660;2023-07-20T01:09:34;25.90;46.50
13115;DHT22;6623;52.120;8.660;2023-07-20T01:12:18;25.90;46.60
13115;DHT22;6623;52.120;8.660;2023-07-20T01:14:48;25.90;46.50
13115;DHT22;6623;52.120;8.660;2023-07-20T01:17:14;25.90;46.50
13115;DHT22;6623;52.120;8.660;2023-07-20T01:19:39;25.90;46.50
13115;DHT22;6623;52.120;8.660;2023-07-20T01:31:37;25.90;46.50
13115;DHT22;6623;52.120;8.660;2023-07-20T01:33:32;25.80;46.50
13115;DHT22;6623;52.120;8.660;2023-07-20T01:35:59;25.90;46.60
13115;DHT22;6623;52.120;8.660;2023-07-20T01:38:26;25.80;46.50
13115;DHT22;6623;52.120;8.660;2023-07-20T01:40:51;25.90;46.60
13115;DHT22;6623;52.120;8.660;2023-07-20T01:43:18;25.80;46.50
13115;DHT22;6623;52.120;8.660;2023-07-20T01:45:44;25.90;46.60
13115;DHT22;6623;52.120;8.660;2023-07-20T01:48:10;25.90;46.50
13115;DHT22;6623;52.120;8.660;2023-07-20T01:50:35;25.80;46.50
13115;DHT22;6623;52.120;8.660;2023-07-20T01:53:01;25.90;46.60
13115;DHT22;6623;52.120;8.660;2023-07-20T01:55:27;25.90;46.60
13115;DHT22;6623;52.120;8.660;2023-07-20T01:57:53;25.90;46.50
13115;DHT22;6623;52.120;8.660;2023-07-20T02:00:18;25.80;46.50
13115;DHT22;6623;52.120;8.660;2023-07-20T02:02:46;25.80;46.50
13115;DHT22;6623;52.120;8.660;2023-07-20T02:05:12;25.90;46.50
13115;DHT22;6623;52.120;8.660;2023-07-20T02:07:38;25.90;46.50
13115;DHT22;6623;52.120;8.660;2023-07-20T02:10:04;25.90;46.50
13115;DHT22;6623;52.120;8.660;2023-07-20T02:12:29;25.90;46.50
13115;DHT22;6623;52.120;8.660;2023-07-20T02:14:55;25.90;46.50
13115;DHT22;6623;52.120;8.660;2023-07-20T02:17:20;25.80;46.50
13115;DHT22;6623;52.120;8.660;2023-07-20T02:19:46;25.90;46.60
13115;DHT22;6623;52.120;8.660;2023-07-20T02:22:15;25.80;46.50
13115;DHT22;6623;52.120;8.660;2023-07-20T02:24:40;25.80;46.50
13115;DHT22;6623;52.120;8.660;2023-07-20T02:27:06;25.80;46.50
13115;DHT22;6623;52.120;8.660;2023-07-20T02:29:32;25.90;46.50
13115;DHT22;6623;52.120;8.660;2023-07-20T02:31:57;25.90;46.50
13115;DHT22;6623;52.120;8.660;2023-07-20T02:34:23;25.80;46.50
13115;DHT22;6623;52.120;8.660;2023-07-20T02:36:49;25.90;46.60
13115;DHT22;6623;52.120;8.660;2023-07-20T02:39:15;25.90;46.50
13115;DHT22;6623;52.120;8.660;2023-07-20T02:41:41;25.90;46.50
13115;DHT22;6623;52.120;8.660;2023-07-20T02:44:07;25.90;47.20
13115;DHT22;6623;52.120;8.660;2023-07-20T02:46:32;25.90;46.60
13115;DHT22;6623;52.120;8.660;2023-07-20T02:48:58;25.80;46.50
13115;DHT22;6623;52.120;8.660;2023-07-20T02:51:23;25.80;46.50
13115;DHT22;6623;52.120;8.660;2023-07-20T02:53:49;25.80;46.50
13115;DHT22;6623;52.120;8.660;2023-07-20T02:56:14;25.90;46.60
13115;DHT22;6623;52.120;8.660;2023-07-20T02:58:41;25.80;46.50
13115;DHT22;6623;52.120;8.660;2023-07-20T03:01:11;25.80;46.60
13115;DHT22;6623;52.120;8.660;2023-07-20T03:03:37;25.90;46.60
13115;DHT22;6623;52.120;8.660;2023-07-20T03:06:06;25.90;46.60
13115;DHT22;6623;52.120;8.660;2023-07-20T03:08:34;25.80;46.60
13115;DHT22;6623;52.120;8.660;2023-07-20T03:10:59;25.80;46.60
13115;DHT22;6623;52.120;8.660;2023-07-20T03:13:25;25.80;46.60
13115;DHT22;6623;52.120;8.660;2023-07-20T03:15:52;25.80;46.60
13115;DHT22;6623;52.120;8.660;2023-07-20T03:18:18;25.80;46.60
13115;DHT22;6623;52.120;8.660;2023-07-20T03:20:43;25.80;46.60
13115;DHT22;6623;52.120;8.660;2023-07-20T03:23:09;25.80;46.60
13115;DHT22;6623;52.120;8.660;2023-07-20T03:25:34;25.90;46.70
13115;DHT22;6623;52.120;8.660;2023-07-20T03:28:02;25.90;46.70
13115;DHT22;6623;52.120;8.660;2023-07-20T03:30:28;25.80;46.90
13115;DHT22;6623;52.120;8.660;2023-07-20T03:32:53;25.90;46.70
13115;DHT22;6623;52.120;8.660;2023-07-20T03:35:19;25.80;46.60
13115;DHT22;6623;52.120;8.660;2023-07-20T03:37:45;25.80;46.60
13115;DHT22;6623;52.120;8.660;2023-07-20T03:40:10;25.90;46.70
13115;DHT22;6623;52.120;8.660;2023-07-20T03:42:36;25.80;46.60
13115;DHT22;6623;52.120;8.660;2023-07-20T03:45:02;25.80;46.60
13115;DHT22;6623;52.120;8.660;2023-07-20T03:47:28;25.80;46.60
13115;DHT22;6623;52.120;8.660;2023-07-20T03:49:54;25.80;46.60
13115;DHT22;6623;52.120;8.660;2023-07-20T03:52:19;25.80;46.60
13115;DHT22;6623;52.120;8.660;2023-07-20T03:54:45;25.80;46.60
13115;DHT22;6623;52.120;8.660;2023-07-20T03:57:11;25.80;46.60
13115;DHT22;6623;52.120;8.660;2023-07-20T03:59:38;25.80;46.60
13115;DHT22;6623;52.120;8.660;2023-07-20T04:02:04;25.80;46.70
13115;DHT22;6623;52.120;8.660;2023-07-20T04:04:31;25.90;46.70
13115;DHT22;6623;52.120;8.660;2023-07-20T04:06:57;25.90;46.70
13115;DHT22;6623;52.120;8.660;2023-07-20T04:09:22;25.80;46.70
13115;DHT22;6623;52.120;8.660;2023-07-20T04:11:48;25.80;46.70
13115;DHT22;6623;52.120;8.660;2023-07-20T04:14:13;25.80;46.70
13115;DHT22;6623;52.120;8.660;2023-07-20T04:16:39;25.80;46.70
13115;DHT22;6623;52.120;8.660;2023-07-20T04:19:04;25.80;46.60
13115;DHT22;6623;52.120;8.660;2023-07-20T04:21:30;25.80;46.70
13115;DHT22;6623;52.120;8.660;2023-07-20T04:23:55;25.80;46.70
13115;DHT22;6623;52.120;8.660;2023-07-20T04:26:21;25.80;46.70
13115;DHT22;6623;52.120;8.660;2023-07-20T04:28:47;25.80;46.70
13115;DHT22;6623;52.120;8.660;2023-07-20T04:31:14;25.80;46.70
13115;DHT22;6623;52.120;8.660;2023-07-20T04:33:40;25.80;46.70
13115;DHT22;6623;52.120;8.660;2023-07-20T04:36:06;25.80;46.70
13115;DHT22;6623;52.120;8.660;2023-07-20T04:38:32;25.80;46.70
13115;DHT22;6623;52.120;8.660;2023-07-20T04:40:58;25.80;46.70
13115;DHT22;6623;52.120;8.660;2023-07-20T04:43:24;25.80;46.70
13115;DHT22;6623;52.120;8.660;2023-07-20T04:45:49;25.80;46.70
13115;DHT22;6623;52.120;8.660;2023-07-20T04:48:16;25.80;46.70
13115;DHT22;6623;52.120;8.660;2023-07-20T04:50:45;25.80;46.70
13115;DHT22;6623;52.120;8.660;2023-07-20T04:53:12;25.80;46.70
13115;DHT22;6623;52.120;8.660;2023-07-20T04:55:39;25.80;46.70
13115;DHT22;6623;52.120;8.660;2023-07-20T04:58:05;25.80;46.70
13115;DHT22;6623;52.120;8.660;2023-07-20T05:00:32;25.80;46.70
13115;DHT22;6623;52.120;8.660;2023-07-20T05:02:58;25.80;46.80
13115;DHT22;6623;52.120;8.660;2023-07-20T05:05:24;25.80;46.70
13115;DHT22;6623;52.120;8.660;2023-07-20T05:07:49;25.80;46.70
13115;DHT22;6623;52.120;8.660;2023-07-20T05:10:16;25.80;46.80
13115;DHT22;6623;52.120;8.660;2023-07-20T05:12:41;25.80;46.80
13115;DHT22;6623;52.120;8.660;2023-07-20T05:15:07;25.80;46.80
13115;DHT22;6623;52.120;8.660;2023-07-20T05:17:33;25.80;46.80
13115;DHT22;6623;52.120;8.660;2023-07-20T05:19:58;25.80;46.80
13115;DHT22;6623;52.120;8.660;2023-07-20T05:22:24;25.80;46.80
13115;DHT22;6623;52.120;8.660;2023-07-20T05:24:50;25.80;46.80
13115;DHT22;6623;52.120;8.660;2023-07-20T05:27:16;25.80;46.80
13115;DHT22;6623;52.120;8.660;2023-07-20T05:29:45;25.80;46.80
13115;DHT22;6623;52.120;8.660;2023-07-20T05:32:11;25.80;46.80
13115;DHT22;6623;52.120;8.660;2023-07-20T05:34:36;25.80;46.80
13115;DHT22;6623;52.120;8.660;2023-07-20T05:37:02;25.80;46.80
13115;DHT22;6623;52.120;8.660;2023-07-20T05:39:27;25.80;46.80
13115;DHT22;6623;52.120;8.660;2023-07-20T05:41:53;25.80;46.80
13115;DHT22;6623;52.120;8.660;2023-07-20T05:44:18;25.80;46.80
13115;DHT22;6623;52.120;8.660;2023-07-20T05:46:44;25.80;46.80
13115;DHT22;6623;52.120;8.660;2023-07-20T05:49:10;25.80;46.90
13115;DHT22;6623;52.120;8.660;2023-07-20T05:51:35;25.80;46.80
13115;DHT22;6623;52.120;8.660;2023-07-20T05:54:01;25.80;46.80
13115;DHT22;6623;52.120;8.660;2023-07-20T05:56:27;25.80;46.90
13115;DHT22;6623;52.120;8.660;2023-07-20T05:58:52;25.80;46.80
13115;DHT22;6623;52.120;8.660;2023-07-20T06:01:18;25.80;46.90
13115;DHT22;6623;52.120;8.660;2023-07-20T06:03:44;25.80;46.90
13115;DHT22;6623;52.120;8.660;2023-07-20T06:06:10;25.70;46.80
13115;DHT22;6623;52.120;8.660;2023-07-20T06:08:37;25.80;46.90
13115;DHT22;6623;52.120;8.660;2023-07-20T06:11:03;25.70;46.80
13115;DHT22;6623;52.120;8.660;2023-07-20T06:13:28;25.80;46.90
13115;DHT22;6623;52.120;8.660;2023-07-20T06:15:54;25.80;46.90
13115;DHT22;6623;52.120;8.660;2023-07-20T06:18:22;25.80;46.90
13115;DHT22;6623;52.120;8.660;2023-07-20T06:20:51;25.80;46.90
13115;DHT22;6623;52.120;8.660;2023-07-20T06:23:18;25.80;46.90
13115;DHT22;6623;52.120;8.660;2023-07-20T06:25:44;25.80;46.90
13115;DHT22;6623;52.120;8.660;2023-07-20T06:28:10;25.80;47.00
13115;DHT22;6623;52.120;8.660;2023-07-20T06:30:35;25.70;46.90
13115;DHT22;6623;52.120;8.660;2023-07-20T06:33:01;25.80;46.90
13115;DHT22;6623;52.120;8.660;2023-07-20T06:35:26;25.70;46.90
13115;DHT22;6623;52.120;8.660;2023-07-20T06:37:52;25.80;47.00
13115;DHT22;6623;52.120;8.660;2023-07-20T06:40:18;25.80;47.00
13115;DHT22;6623;52.120;8.660;2023-07-20T06:42:44;25.70;46.90
13115;DHT22;6623;52.120;8.660;2023-07-20T06:45:09;25.70;46.90
13115;DHT22;6623;52.120;8.660;2023-07-20T06:47:37;25.80;47.00
13115;DHT22;6623;52.120;8.660;2023-07-20T06:50:03;25.80;46.90
13115;DHT22;6623;52.120;8.660;2023-07-20T06:52:28;25.80;46.90
13115;DHT22;6623;52.120;8.660;2023-07-20T06:54:54;25.80;46.90
13115;DHT22;6623;52.120;8.660;2023-07-20T06:57:19;25.80;47.00
13115;DHT22;6623;52.120;8.660;2023-07-20T06:59:45;25.80;47.00
13115;DHT22;6623;52.120;8.660;2023-07-20T07:02:11;25.70;46.90
13115;DHT22;6623;52.120;8.660;2023-07-20T07:04:36;25.80;46.90
13115;DHT22;6623;52.120;8.660;2023-07-20T07:07:02;25.80;46.90
13115;DHT22;6623;52.120;8.660;2023-07-20T07:09:28;25.80;47.00
13115;DHT22;6623;52.120;8.660;2023-07-20T07:11:54;25.80;47.00
13115;DHT22;6623;52.120;8.660;2023-07-20T07:14:20;25.80;46.90
13115;DHT22;6623;52.120;8.660;2023-07-20T07:16:46;25.80;46.90
13115;DHT22;6623;52.120;8.660;2023-07-20T07:19:11;25.80;47.00
13115;DHT22;6623;52.120;8.660;2023-07-20T07:21:37;25.80;46.90
13115;DHT22;6623;52.120;8.660;2023-07-20T07:24:03;25.80;46.90
13115;DHT22;6623;52.120;8.660;2023-07-20T07:26:29;25.70;46.90
13115;DHT22;6623;52.120;8.660;2023-07-20T07:28:54;25.80;46.90
13115;DHT22;6623;52.120;8.660;2023-07-20T07:31:20;25.80;46.90
13115;DHT22;6623;52.120;8.660;2023-07-20T07:33:46;25.80;46.90
13115;DHT22;6623;52.120;8.660;2023-07-20T07:36:11;25.70;46.80
13115;DHT22;6623;52.120;8.660;2023-07-20T07:38:37;25.80;47.00
13115;DHT22;6623;52.120;8.660;2023-07-20T07:41:03;25.70;46.90
13115;DHT22;6623;52.120;8.660;2023-07-20T07:43:29;25.70;46.80
13115;DHT22;6623;52.120;8.660;2023-07-20T07:45:54;25.70;46.80
13115;DHT22;6623;52.120;8.660;2023-07-20T07:48:21;25.70;46.80
13115;DHT22;6623;52.120;8.660;2023-07-20T07:50:47;25.70;46.80
13115;DHT22;6623;52.120;8.660;2023-07-20T07:53:13;25.70;46.80
13115;DHT22;6623;52.120;8.660;2023-07-20T07:55:38;25.70;46.80
13115;DHT22;6623;52.120;8.660;2023-07-20T07:58:04;25.70;46.80
13115;DHT22;6623;52.120;8.660;2023-07-20T08:00:29;25.70;46.80
13115;DHT22;6623;52.120;8.660;2023-07-20T08:02:55;25.80;46.90
13115;DHT22;6623;52.120;8.660;2023-07-20T08:05:21;25.70;46.80
13115;DHT22;6623;52.120;8.660;2023-07-20T08:07:46;25.70;46.80
13115;DHT22;6623;52.120;8.660;2023-07-20T08:10:12;25.70;46.80
13115;DHT22;6623;52.120;8.660;2023-07-20T08:12:37;25.70;46.80
13115;DHT22;6623;52.120;8.660;2023-07-20T08:15:03;25.70;46.80
13115;DHT22;6623;52.120;8.660;2023-07-20T08:17:29;25.70;46.80
13115;DHT22;6623;52.120;8.660;2023-07-20T08:19:55;25.80;46.80
13115;DHT22;6623;52.120;8.660;2023-07-20T08:22:20;25.70;47.40
13115;DHT22;6623;52.120;8.660;2023-07-20T08:24:46;25.70;46.70
13115;DHT22;6623;52.120;8.660;2023-07-20T08:27:12;25.70;46.70
13115;DHT22;6623;52.120;8.660;2023-07-20T08:29:37;25.70;46.70
13115;DHT22;6623;52.120;8.660;2023-07-20T08:32:04;25.70;46.70
13115;DHT22;6623;52.120;8.660;2023-07-20T08:34:30;25.70;46.70
13115;DHT22;6623;52.120;8.660;2023-07-20T08:36:56;25.70;46.70
13115;DHT22;6623;52.120;8.660;2023-07-20T08:39:22;25.70;46.70
13115;DHT22;6623;52.120;8.660;2023-07-20T08:41:48;25.70;46.60
13115;DHT22;6623;52.120;8.660;2023-07-20T08:44:14;25.70;46.70
13115;DHT22;6623;52.120;8.660;2023-07-20T08:46:40;25.70;46.60
13115;DHT22;6623;52.120;8.660;2023-07-20T08:49:06;25.70;46.60
13115;DHT22;6623;52.120;8.660;2023-07-20T08:51:33;25.70;46.60
13115;DHT22;6623;52.120;8.660;2023-07-20T08:54:01;25.70;46.60
13115;DHT22;6623;52.120;8.660;2023-07-20T08:56:26;25.70;46.60
13115;DHT22;6623;52.120;8.660;2023-07-20T08:58:53;25.70;46.60
13115;DHT22;6623;52.120;8.660;2023-07-20T09:01:22;25.70;46.60
13115;DHT22;6623;52.120;8.660;2023-07-20T09:03:48;25.70;46.60
13115;DHT22;6623;52.120;8.660;2023-07-20T09:06:14;25.70;46.50
13115;DHT22;6623;52.120;8.660;2023-07-20T09:08:41;25.70;46.50
13115;DHT22;6623;52.120;8.660;2023-07-20T09:11:08;25.70;46.40
13115;DHT22;6623;52.120;8.660;2023-07-20T09:13:34;25.70;46.40
13115;DHT22;6623;52.120;8.660;2023-07-20T09:15:59;25.70;46.40
13115;DHT22;6623;52.120;8.660;2023-07-20T09:18:29;25.70;46.40
13115;DHT22;6623;52.120;8.660;2023-07-20T09:21:03;25.70;46.40
13115;DHT22;6623;52.120;8.660;2023-07-20T09:23:35;25.70;46.40
13115;DHT22;6623;52.120;8.660;2023-07-20T09:26:13;25.70;46.30
13115;DHT22;6623;52.120;8.660;2023-07-20T09:28:43;25.70;46.30
13115;DHT22;6623;52.120;8.660;2023-07-20T09:31:16;25.70;46.30
13115;DHT22;6623;52.120;8.660;2023-07-20T09:33:42;25.70;46.30
13115;DHT22;6623;52.120;8.660;2023-07-20T09:36:09;25.70;46.30
13115;DHT22;6623;52.120;8.660;2023-07-20T09:38:37;25.70;46.30
13115;DHT22;6623;52.120;8.660;2023-07-20T09:41:04;25.70;46.20
13115;DHT22;6623;52.120;8.660;2023-07-20T09:43:30;25.70;46.20
13115;DHT22;6623;52.120;8.660;2023-07-20T09:45:58;25.70;46.20
13115;DHT22;6623;52.120;8.660;2023-07-20T09:48:24;25.70;46.20
13115;DHT22;6623;52.120;8.660;2023-07-20T09:50:51;25.70;46.10
13115;DHT22;6623;52.120;8.660;2023-07-20T09:53:18;25.70;46.10
13115;DHT22;6623;52.120;8.660;2023-07-20T09:55:45;25.70;46.00
13115;DHT22;6623;52.120;8.660;2023-07-20T09:58:12;25.70;46.00
13115;DHT22;6623;52.120;8.660;2023-07-20T10:00:39;25.70;46.00
13115;DHT22;6623;52.120;8.660;2023-07-20T10:03:06;25.70;46.00
13115;DHT22;6623;52.120;8.660;2023-07-20T10:05:33;25.70;46.00
13115;DHT22;6623;52.120;8.660;2023-07-20T10:08:01;25.70;46.00
13115;DHT22;6623;52.120;8.660;2023-07-20T10:10:28;25.70;45.90
13115;DHT22;6623;52.120;8.660;2023-07-20T10:12:54;25.70;45.90
13115;DHT22;6623;52.120;8.660;2023-07-20T10:15:37;25.70;45.90
13115;DHT22;6623;52.120;8.660;2023-07-20T10:18:25;25.70;45.90
13115;DHT22;6623;52.120;8.660;2023-07-20T10:20:54;25.70;45.90
13115;DHT22;6623;52.120;8.660;2023-07-20T10:23:21;25.70;45.90
13115;DHT22;6623;52.120;8.660;2023-07-20T10:25:47;25.60;45.80
13115;DHT22;6623;52.120;8.660;2023-07-20T10:28:13;25.70;45.80
13115;DHT22;6623;52.120;8.660;2023-07-20T10:30:39;25.70;45.80
13115;DHT22;6623;52.120;8.660;2023-07-20T10:33:06;25.60;45.70
13115;DHT22;6623;52.120;8.660;2023-07-20T10:35:54;25.60;45.70
13115;DHT22;6623;52.120;8.660;2023-07-20T10:38:25;25.60;45.60
13115;DHT22;6623;52.120;8.660;2023-07-20T10:41:03;25.60;45.60
13115;DHT22;6623;52.120;8.660;2023-07-20T10:43:28;25.60;45.60
13115;DHT22;6623;52.120;8.660;2023-07-20T10:45:54;25.70;45.60
13115;DHT22;6623;52.120;8.660;2023-07-20T10:48:22;25.60;45.50
13115;DHT22;6623;52.120;8.660;2023-07-20T10:51:12;25.60;45.50
13115;DHT22;6623;52.120;8.660;2023-07-20T10:53:39;25.60;45.50
13115;DHT22;6623;52.120;8.660;2023-07-20T10:56:12;25.60;45.50
13115;DHT22;6623;52.120;8.660;2023-07-20T10:58:39;25.60;45.50
13115;DHT22;6623;52.120;8.660;2023-07-20T11:01:05;25.60;45.50
13115;DHT22;6623;52.120;8.660;2023-07-20T11:03:36;25.60;45.50
13115;DHT22;6623;52.120;8.660;2023-07-20T11:11:47;25.60;45.40
13115;DHT22;6623;52.120;8.660;2023-07-20T11:14:22;25.60;45.40
13115;DHT22;6623;52.120;8.660;2023-07-20T11:16:49;25.60;45.40
13115;DHT22;6623;52.120;8.660;2023-07-20T11:19:20;25.60;45.40
13115;DHT22;6623;52.120;8.660;2023-07-20T11:21:49;25.60;45.30
13115;DHT22;6623;52.120;8.660;2023-07-20T11:24:15;25.60;45.30
13115;DHT22;6623;52.120;8.660;2023-07-20T11:26:48;25.60;45.30
13115;DHT22;6623;52.120;8.660;2023-07-20T11:29:16;25.60;45.30
13115;DHT22;6623;52.120;8.660;2023-07-20T11:31:43;25.60;45.30
13115;DHT22;6623;52.120;8.660;2023-07-20T11:34:14;25.60;45.30
13115;DHT22;6623;52.120;8.660;2023-07-20T11:36:50;25.60;45.20
13115;DHT22;6623;52.120;8.660;2023-07-20T11:39:17;25.60;45.20
13115;DHT22;6623;52.120;8.660;2023-07-20T11:41:50;25.60;45.20
13115;DHT22;6623;52.120;8.660;2023-07-20T11:44:17;25.60;45.10
13115;DHT22;6623;52.120;8.660;2023-07-20T11:46:44;25.60;45.10
13115;DHT22;6623;52.120;8.660;2023-07-20T11:49:13;25.60;45.00
13115;DHT22;6623;52.120;8.660;2023-07-20T11:51:40;25.60;45.00
13115;DHT22;6623;52.120;8.660;2023-07-20T11:54:07;25.60;45.00
13115;DHT22;6623;52.120;8.660;2023-07-20T11:56:33;25.60;45.00
13115;DHT22;6623;52.120;8.660;2023-07-20T11:58:59;25.60;44.90
13115;DHT22;6623;52.120;8.660;2023-07-20T12:01:27;25.60;44.90
13115;DHT22;6623;52.120;8.660;2023-07-20T12:04:00;25.60;44.80
13115;DHT22;6623;52.120;8.660;2023-07-20T12:06:30;25.60;44.80
13115;DHT22;6623;52.120;8.660;2023-07-20T12:08:59;25.60;44.80
13115;DHT22;6623;52.120;8.660;2023-07-20T12:11:32;25.60;44.70
13115;DHT22;6623;52.120;8.660;2023-07-20T12:13:58;25.60;44.70
13115;DHT22;6623;52.120;8.660;2023-07-20T12:16:27;25.60;44.70
13115;DHT22;6623;52.120;8.660;2023-07-20T12:19:04;25.60;44.70
13115;DHT22;6623;52.120;8.660;2023-07-20T12:21:30;25.60;44.60
13115;DHT22;6623;52.120;8.660;2023-07-20T12:23:57;25.60;44.60
13115;DHT22;6623;52.120;8.660;2023-07-20T12:26:24;25.60;44.60
13115;DHT22;6623;52.120;8.660;2023-07-20T12:28:50;25.60;44.60
13115;DHT22;6623;52.120;8.660;2023-07-20T12:31:16;25.60;44.40
13115;DHT22;6623;52.120;8.660;2023-07-20T12:33:42;25.60;44.40
13115;DHT22;6623;52.120;8.660;2023-07-20T12:36:08;25.50;44.20
13115;DHT22;6623;52.120;8.660;2023-07-20T12:38:34;25.60;44.20
13115;DHT22;6623;52.120;8.660;2023-07-20T12:41:01;25.50;44.10
13115;DHT22;6623;52.120;8.660;2023-07-20T12:43:26;25.60;44.20
13115;DHT22;6623;52.120;8.660;2023-07-20T12:45:52;25.60;44.20
13115;DHT22;6623;52.120;8.660;2023-07-20T12:48:18;25.50;44.10
13115;DHT22;6623;52.120;8.660;2023-07-20T12:50:43;25.50;44.20
13115;DHT22;6623;52.120;8.660;2023-07-20T12:53:09;25.60;44.30
13115;DHT22;6623;52.120;8.660;2023-07-20T12:55:35;25.50;44.30
13115;DHT22;6623;52.120;8.660;2023-07-20T12:58:00;25.50;44.30
13115;DHT22;6623;52.120;8.660;2023-07-20T13:00:26;25.50;44.30
13115;DHT22;6623;52.120;8.660;2023-07-20T13:02:52;25.50;44.40
13115;DHT22;6623;52.120;8.660;2023-07-20T13:05:17;25.50;44.40
13115;DHT22;6623;52.120;8.660;2023-07-20T13:07:43;25.50;44.40
13115;DHT22;6623;52.120;8.660;2023-07-20T13:10:10;25.50;44.30
13115;DHT22;6623;52.120;8.660;2023-07-20T13:12:37;25.50;44.40
13115;DHT22;6623;52.120;8.660;2023-07-20T13:15:04;25.60;44.40
13115;DHT22;6623;52.120;8.660;2023-07-20T13:17:37;25.50;44.90
13115;DHT22;6623;52.120;8.660;2023-07-20T13:20:04;25.50;44.10
13115;DHT22;6623;52.120;8.660;2023-07-20T13:22:31;25.50;43.70
13115;DHT22;6623;52.120;8.660;2023-07-20T13:24:57;25.50;43.40
13115;DHT22;6623;52.120;8.660;2023-07-20T13:27:22;25.50;43.20
13115;DHT22;6623;52.120;8.660;2023-07-20T13:29:48;25.40;43.00
13115;DHT22;6623;52.120;8.660;2023-07-20T13:32:14;25.40;42.80
13115;DHT22;6623;52.120;8.660;2023-07-20T13:34:40;25.40;42.80
13115;DHT22;6623;52.120;8.660;2023-07-20T13:37:06;25.40;42.80
13115;DHT22;6623;52.120;8.660;2023-07-20T13:39:32;25.30;42.70
13115;DHT22;6623;52.120;8.660;2023-07-20T13:41:57;25.30;42.70
13115;DHT22;6623;52.120;8.660;2023-07-20T13:44:23;25.30;42.60
13115;DHT22;6623;52.120;8.660;2023-07-20T13:46:49;25.20;42.50
13115;DHT22;6623;52.120;8.660;2023-07-20T13:49:15;25.20;42.50
13115;DHT22;6623;52.120;8.660;2023-07-20T13:51:43;25.20;42.50
13115;DHT22;6623;52.120;8.660;2023-07-20T13:54:09;25.20;42.50
13115;DHT22;6623;52.120;8.660;2023-07-20T13:56:35;25.20;42.50
13115;DHT22;6623;52.120;8.660;2023-07-20T13:59:01;25.20;42.50
13115;DHT22;6623;52.120;8.660;2023-07-20T14:01:27;25.20;42.60
13115;DHT22;6623;52.120;8.660;2023-07-20T14:03:54;25.20;42.70
13115;DHT22;6623;52.120;8.660;2023-07-20T14:06:19;25.20;42.70
13115;DHT22;6623;52.120;8.660;2023-07-20T14:08:45;25.20;42.70
13115;DHT22;6623;52.120;8.660;2023-07-20T14:11:12;25.20;42.70
13115;DHT22;6623;52.120;8.660;2023-07-20T14:13:38;25.10;42.60
13115;DHT22;6623;52.120;8.660;2023-07-20T14:16:04;25.10;42.50
13115;DHT22;6623;52.120;8.660;2023-07-20T14:18:29;25.10;42.60
13115;DHT22;6623;52.120;8.660;2023-07-20T14:20:55;25.10;42.50
13115;DHT22;6623;52.120;8.660;2023-07-20T14:23:21;25.10;42.60
13115;DHT22;6623;52.120;8.660;2023-07-20T14:25:47;25.10;42.60
13115;DHT22;6623;52.120;8.660;2023-07-20T14:28:13;25.10;42.60
13115;DHT22;6623;52.120;8.660;2023-07-20T14:30:39;25.10;42.50
13115;DHT22;6623;52.120;8.660;2023-07-20T14:33:04;25.00;42.40
13115;DHT22;6623;52.120;8.660;2023-07-20T14:35:30;25.00;42.40
13115;DHT22;6623;52.120;8.660;2023-07-20T14:37:55;25.00;42.40
13115;DHT22;6623;52.120;8.660;2023-07-20T14:40:21;25.00;42.40
13115;DHT22;6623;52.120;8.660;2023-07-20T14:42:46;25.00;42.40
13115;DHT22;6623;52.120;8.660;2023-07-20T14:45:12;25.00;42.50
13115;DHT22;6623;52.120;8.660;2023-07-20T14:47:37;25.00;42.40
13115;DHT22;6623;52.120;8.660;2023-07-20T14:50:03;25.00;42.50
13115;DHT22;6623;52.120;8.660;2023-07-20T14:52:29;24.90;42.50
13115;DHT22;6623;52.120;8.660;2023-07-20T14:54:55;24.90;42.60
13115;DHT22;6623;52.120;8.660;2023-07-20T14:57:21;24.90;42.70
13115;DHT22;6623;52.120;8.660;2023-07-20T14:59:55;24.90;42.80
13115;DHT22;6623;52.120;8.660;2023-07-20T15:02:20;24.90;43.60
13115;DHT22;6623;52.120;8.660;2023-07-20T15:04:47;24.90;43.00
13115;DHT22;6623;52.120;8.660;2023-07-20T15:07:20;24.90;43.00
13115;DHT22;6623;52.120;8.660;2023-07-20T15:09:49;24.90;43.10
13115;DHT22;6623;52.120;8.660;2023-07-20T15:12:15;24.90;43.20
13115;DHT22;6623;52.120;8.660;2023-07-20T15:14:42;24.90;43.20
13115;DHT22;6623;52.120;8.660;2023-07-20T15:17:09;24.90;43.30
13115;DHT22;6623;52.120;8.660;2023-07-20T15:19:34;24.90;43.30
13115;DHT22;6623;52.120;8.660;2023-07-20T15:22:01;24.90;43.30
13115;DHT22;6623;52.120;8.660;2023-07-20T15:24:28;24.80;43.30
13115;DHT22;6623;52.120;8.660;2023-07-20T15:26:54;24.90;43.40
13115;DHT22;6623;52.120;8.660;2023-07-20T15:29:19;24.80;43.30
13115;DHT22;6623;52.120;8.660;2023-07-20T15:31:46;24.90;43.30
13115;DHT22;6623;52.120;8.660;2023-07-20T15:34:12;24.80;43.30
13115;DHT22;6623;52.120;8.660;2023-07-20T15:36:39;24.80;43.30
13115;DHT22;6623;52.120;8.660;2023-07-20T15:39:05;24.80;43.30
13115;DHT22;6623;52.120;8.660;2023-07-20T15:41:31;24.80;43.20
13115;DHT22;6623;52.120;8.660;2023-07-20T15:43:56;24.80;43.30
13115;DHT22;6623;52.120;8.660;2023-07-20T15:49:06;24.80;43.10
13115;DHT22;6623;52.120;8.660;2023-07-20T15:51:35;24.80;43.10
13115;DHT22;6623;52.120;8.660;2023-07-20T15:54:10;24.80;43.10
13115;DHT22;6623;52.120;8.660;2023-07-20T15:56:37;24.80;43.00
13115;DHT22;6623;52.120;8.660;2023-07-20T15:59:04;24.80;43.10
13115;DHT22;6623;52.120;8.660;2023-07-20T16:01:30;24.80;43.10